createdAt,value
2018-06-08T00:01:29.544Z,19.00
2018-06-08T00:06:27.158Z,19.00
2018-06-08T00:08:56.008Z,18.90
2018-06-08T00:11:24.839Z,18.90
2018-06-08T00:13:53.699Z,18.90
2018-06-08T00:16:22.547Z,18.80
2018-06-08T00:18:51.414Z,18.80
2018-06-08T00:21:20.279Z,18.80
2018-06-08T00:23:49.186Z,18.80
2018-06-08T00:26:18.064Z,18.80
2018-06-08T00:31:15.680Z,18.70
2018-06-08T00:33:44.531Z,18.70
2018-06-08T00:36:13.375Z,18.70
2018-06-08T00:38:42.243Z,18.60
2018-06-08T00:41:11.100Z,18.60
2018-06-08T00:43:39.956Z,18.60
2018-06-08T00:55:37.695Z,18.60
2018-06-08T00:58:06.648Z,18.50
2018-06-08T01:00:35.518Z,18.50
2018-06-08T01:03:04.567Z,18.40
2018-06-08T01:05:33.449Z,18.40
2018-06-08T01:08:02.415Z,18.50
2018-06-08T01:10:31.286Z,18.40
2018-06-08T01:13:00.164Z,18.40
2018-06-08T01:15:29.028Z,18.30
2018-06-08T01:17:57.956Z,18.30
2018-06-08T01:20:26.825Z,18.30
2018-06-08T01:25:24.475Z,18.30
2018-06-08T01:27:53.395Z,18.30
2018-06-08T01:30:22.248Z,18.30
2018-06-08T01:32:51.114Z,18.30
2018-06-08T01:35:20.018Z,18.30
2018-06-08T01:40:17.760Z,18.20
2018-06-08T01:42:46.780Z,18.20
2018-06-08T01:45:15.730Z,18.20
2018-06-08T01:47:44.622Z,18.20
2018-06-08T01:50:13.467Z,18.20
2018-06-08T01:52:42.359Z,18.20
2018-06-08T01:55:11.287Z,18.20
2018-06-08T01:57:40.199Z,18.10
2018-06-08T02:00:09.059Z,18.00
2018-06-08T02:02:37.945Z,18.00
2018-06-08T02:05:06.802Z,18.10
2018-06-08T02:07:35.764Z,18.00
2018-06-08T02:10:04.740Z,18.00
2018-06-08T02:12:33.603Z,18.00
2018-06-08T02:17:31.319Z,17.90
2018-06-08T02:20:00.211Z,17.90
2018-06-08T02:22:29.055Z,17.90
2018-06-08T02:27:26.698Z,17.90
2018-06-08T02:29:55.567Z,17.80
2018-06-08T02:32:24.461Z,17.90
2018-06-08T02:34:53.311Z,17.90
2018-06-08T02:37:22.255Z,17.90
2018-06-08T02:39:51.159Z,17.80
2018-06-08T02:42:20.024Z,17.80
2018-06-08T02:44:48.908Z,17.80
2018-06-08T02:47:17.799Z,17.80
2018-06-08T02:49:46.679Z,17.80
2018-06-08T02:52:15.569Z,17.70
2018-06-08T02:54:44.460Z,17.80
2018-06-08T02:57:13.408Z,17.80
2018-06-08T02:59:42.263Z,17.70
2018-06-08T03:02:11.123Z,17.70
2018-06-08T03:04:40.132Z,17.70
2018-06-08T03:07:11.993Z,17.70
2018-06-08T03:09:40.908Z,17.60
2018-06-08T03:12:09.837Z,17.60
2018-06-08T03:14:38.893Z,17.60
2018-06-08T03:17:07.772Z,17.60
2018-06-08T03:19:36.648Z,17.60
2018-06-08T03:22:05.543Z,17.60
2018-06-08T03:24:34.433Z,17.60
2018-06-08T03:29:33.660Z,17.60
2018-06-08T03:32:02.730Z,17.50
2018-06-08T03:34:31.783Z,17.50
2018-06-08T03:37:00.726Z,17.50
2018-06-08T03:39:29.620Z,17.50
2018-06-08T03:41:58.456Z,17.60
2018-06-08T03:44:27.304Z,17.60
2018-06-08T03:46:56.199Z,17.60
2018-06-08T03:49:25.447Z,17.60
2018-06-08T03:51:54.403Z,17.60
2018-06-08T03:54:23.241Z,17.60
2018-06-08T03:56:52.206Z,17.70
2018-06-08T03:59:21.059Z,17.50
2018-06-08T04:01:49.940Z,17.50
2018-06-08T04:04:19.137Z,17.50
2018-06-08T04:06:48.021Z,17.50
2018-06-08T04:09:17.612Z,17.60
2018-06-08T04:14:15.807Z,17.50
2018-06-08T04:16:46.055Z,17.70
2018-06-08T04:19:15.311Z,17.70
2018-06-08T04:24:13.668Z,17.70
2018-06-08T04:26:42.661Z,17.80
2018-06-08T04:29:12.052Z,17.70
2018-06-08T04:31:41.660Z,17.80
2018-06-08T04:34:10.580Z,17.80
2018-06-08T04:39:08.854Z,17.90
2018-06-08T04:41:37.847Z,18.00
2018-06-08T04:44:07.170Z,18.00
2018-06-08T04:49:08.235Z,18.10
2018-06-08T04:51:38.207Z,18.10
2018-06-08T04:54:07.355Z,18.20
2018-06-08T04:56:36.564Z,18.10
2018-06-08T04:59:05.498Z,18.10
2018-06-08T05:01:34.796Z,18.20
2018-06-08T05:04:04.116Z,18.20
2018-06-08T05:06:33.544Z,18.30
2018-06-08T05:09:03.924Z,18.30
2018-06-08T05:11:33.235Z,18.30
2018-06-08T05:14:02.176Z,18.30
2018-06-08T05:19:00.150Z,18.40
2018-06-08T05:21:29.676Z,18.40
2018-06-08T05:23:58.915Z,18.50
2018-06-08T05:26:27.811Z,18.50
2018-06-08T05:28:56.716Z,18.60
2018-06-08T05:31:25.640Z,18.60
2018-06-08T05:38:55.248Z,18.70
2018-06-08T05:41:24.131Z,18.70
2018-06-08T05:43:52.983Z,18.70
2018-06-08T05:46:21.853Z,18.80
2018-06-08T05:51:19.604Z,18.90
2018-06-08T05:53:48.830Z,18.90
2018-06-08T05:58:46.476Z,19.00
2018-06-08T06:01:15.442Z,19.00
2018-06-08T06:03:44.267Z,19.00
2018-06-08T06:06:13.170Z,19.00
2018-06-08T06:08:42.133Z,19.10
2018-06-08T06:11:11.038Z,19.10
2018-06-08T06:16:09.597Z,19.20
2018-06-08T06:18:38.628Z,19.30
2018-06-08T06:21:07.505Z,19.30
2018-06-08T06:23:36.374Z,19.40
2018-06-08T06:26:05.750Z,19.40
2018-06-08T06:28:34.667Z,19.50
2018-06-08T06:31:03.722Z,19.50
2018-06-08T06:36:01.340Z,19.60
2018-06-08T06:38:30.247Z,19.70
2018-06-08T06:40:59.127Z,19.70
2018-06-08T06:43:27.980Z,19.70
2018-06-08T06:48:26.381Z,19.80
2018-06-08T06:50:55.351Z,19.90
2018-06-08T06:53:24.269Z,20.00
2018-06-08T06:58:21.963Z,20.10
2018-06-08T07:00:50.825Z,20.20
2018-06-08T07:05:48.437Z,20.40
2018-06-08T07:08:17.353Z,20.50
2018-06-08T07:10:46.220Z,20.50
2018-06-08T07:13:15.083Z,20.50
2018-06-08T07:15:44.083Z,20.60
2018-06-08T07:18:14.015Z,20.70
2018-06-08T07:20:42.851Z,20.70
2018-06-08T07:23:11.719Z,20.80
2018-06-08T07:25:40.599Z,20.80
2018-06-08T07:28:09.480Z,20.80
2018-06-08T07:30:38.347Z,20.90
2018-06-08T07:33:07.223Z,21.00
2018-06-08T07:35:36.105Z,21.10
2018-06-08T07:38:05.106Z,21.10
2018-06-08T07:40:34.002Z,21.10
2018-06-08T07:45:31.611Z,21.10
2018-06-08T07:48:00.514Z,21.20
2018-06-08T07:50:29.372Z,21.20
2018-06-08T07:52:58.252Z,21.30
2018-06-08T07:57:55.874Z,21.20
2018-06-08T08:00:24.732Z,21.20
2018-06-08T08:02:53.601Z,21.20
2018-06-08T08:05:22.492Z,21.30
2018-06-08T08:12:48.979Z,21.60
2018-06-08T08:15:17.860Z,21.70
2018-06-08T08:17:46.797Z,21.80
2018-06-08T08:20:15.640Z,21.90
2018-06-08T08:22:44.519Z,21.90
2018-06-08T08:25:13.352Z,22.00
2018-06-08T08:27:42.363Z,22.00
2018-06-08T08:30:11.260Z,22.00
2018-06-08T08:32:40.104Z,22.00
2018-06-08T08:35:08.984Z,22.00
2018-06-08T08:40:06.712Z,22.10
2018-06-08T08:42:35.596Z,22.10
2018-06-08T08:45:04.516Z,22.20
2018-06-08T08:47:33.661Z,22.20
2018-06-08T08:50:02.611Z,22.40
2018-06-08T08:52:31.475Z,22.40
2018-06-08T08:55:00.348Z,22.50
2018-06-08T08:57:29.214Z,22.60
2018-06-08T08:59:58.092Z,22.60
2018-06-08T09:02:26.948Z,22.80
2018-06-08T09:04:55.828Z,23.00
2018-06-08T09:07:24.657Z,23.00
2018-06-08T09:12:22.247Z,22.90
2018-06-08T09:14:51.116Z,22.90
2018-06-08T09:17:20.031Z,22.90
2018-06-08T09:19:48.896Z,23.00
2018-06-08T09:22:17.753Z,23.20
2018-06-08T09:24:46.614Z,23.40
2018-06-08T09:27:15.524Z,23.40
2018-06-08T09:29:44.404Z,23.40
2018-06-08T09:32:13.235Z,23.30
2018-06-08T09:34:42.096Z,23.40
2018-06-08T09:37:11.075Z,23.50
2018-06-08T09:39:39.924Z,23.70
2018-06-08T09:42:08.820Z,23.70
2018-06-08T09:44:37.688Z,23.80
2018-06-08T09:47:07.288Z,23.80
2018-06-08T09:49:36.211Z,23.90
2018-06-08T09:52:05.116Z,24.00
2018-06-08T09:54:34.019Z,24.10
2018-06-08T09:57:02.999Z,24.00
2018-06-08T09:59:31.855Z,24.10
2018-06-08T10:02:00.729Z,24.20
2018-06-08T10:04:29.607Z,24.30
2018-06-08T10:06:58.557Z,24.30
2018-06-08T10:09:27.432Z,24.40
2018-06-08T10:11:56.775Z,24.50
2018-06-08T10:16:54.572Z,24.60
2018-06-08T10:19:23.426Z,24.70
2018-06-08T10:21:53.353Z,24.60
2018-06-08T10:24:22.180Z,24.70
2018-06-08T10:26:51.125Z,24.70
2018-06-08T10:29:19.963Z,24.80
2018-06-08T10:31:48.823Z,25.00
2018-06-08T10:34:17.692Z,25.10
2018-06-08T10:36:46.559Z,25.10
2018-06-08T10:39:15.423Z,25.30
2018-06-08T10:41:44.296Z,25.50
2018-06-08T10:44:13.200Z,25.50
2018-06-08T10:46:42.089Z,25.40
2018-06-08T10:49:10.962Z,25.40
2018-06-08T10:51:39.839Z,25.40
2018-06-08T10:54:08.704Z,25.30
2018-06-08T10:56:37.623Z,25.20
2018-06-08T10:59:06.459Z,25.20
2018-06-08T11:01:35.384Z,25.30
2018-06-08T11:04:04.231Z,25.30
2018-06-08T11:06:33.466Z,25.40
2018-06-08T11:09:02.404Z,25.50
2018-06-08T11:11:31.243Z,25.50
2018-06-08T11:14:00.267Z,25.50
2018-06-08T11:16:29.563Z,25.60
2018-06-08T11:18:58.424Z,25.60
2018-06-08T11:21:27.878Z,25.80
2018-06-08T11:23:56.808Z,25.90
2018-06-08T11:26:25.995Z,25.90
2018-06-08T11:28:55.051Z,26.00
2018-06-08T11:31:24.272Z,26.10
2018-06-08T11:33:53.147Z,26.10
2018-06-08T11:36:22.132Z,26.40
2018-06-08T11:38:51.132Z,26.50
2018-06-08T11:41:20.026Z,26.60
2018-06-08T11:43:49.404Z,26.70
2018-06-08T11:46:18.625Z,26.80
2018-06-08T11:48:47.617Z,26.70
2018-06-08T11:51:17.335Z,26.80
2018-06-08T11:53:47.107Z,26.80
2018-06-08T11:56:16.439Z,27.00
2018-06-08T12:01:14.343Z,27.20
2018-06-08T12:03:43.239Z,27.30
2018-06-08T12:06:12.122Z,27.50
2018-06-08T12:11:09.827Z,27.70
2018-06-08T12:13:38.991Z,27.70
2018-06-08T12:16:07.891Z,27.80
2018-06-08T12:18:37.455Z,28.00
2018-06-08T12:21:06.389Z,28.20
2018-06-08T12:23:35.572Z,28.50
2018-06-08T12:26:05.065Z,28.60
2018-06-08T12:28:34.244Z,28.70
2018-06-08T12:31:03.183Z,28.70
2018-06-08T12:36:01.549Z,29.10
2018-06-08T12:38:30.771Z,29.10
2018-06-08T12:46:00.288Z,29.50
2018-06-08T12:48:29.464Z,29.40
2018-06-08T12:50:58.671Z,29.30
2018-06-08T12:53:27.590Z,29.30
2018-06-08T12:55:56.450Z,29.50
2018-06-08T12:58:25.380Z,29.70
2018-06-08T13:03:23.206Z,30.20
2018-06-08T13:05:52.046Z,30.40
2018-06-08T13:08:21.034Z,30.70
2018-06-08T13:10:49.906Z,30.80
2018-06-08T13:13:18.798Z,31.00
2018-06-08T13:15:48.706Z,31.20
2018-06-08T13:18:17.900Z,31.20
2018-06-08T13:20:47.031Z,31.30
2018-06-08T13:23:17.572Z,31.50
2018-06-08T13:25:47.725Z,31.60
2018-06-08T13:28:17.509Z,31.70
2018-06-08T13:30:46.593Z,31.50
2018-06-08T13:33:15.841Z,31.50
2018-06-08T13:35:44.723Z,31.30
2018-06-08T13:38:13.647Z,31.20
2018-06-08T13:40:42.515Z,31.30
2018-06-08T13:43:11.376Z,31.40
2018-06-08T13:45:40.662Z,31.50
2018-06-08T13:48:09.603Z,31.70
2018-06-08T13:50:38.495Z,32.00
2018-06-08T13:53:08.213Z,32.10
2018-06-08T13:55:54.113Z,32.10
2018-06-08T13:58:23.368Z,32.30
2018-06-08T14:00:52.286Z,32.40
2018-06-08T14:03:21.379Z,32.60
2018-06-08T14:05:50.315Z,32.60
2018-06-08T14:08:19.247Z,32.60
2018-06-08T14:10:48.146Z,32.70
2018-06-08T14:13:17.402Z,32.50
2018-06-08T14:15:46.657Z,32.30
2018-06-08T14:18:15.799Z,31.60
2018-06-08T14:20:45.063Z,31.10
2018-06-08T14:23:13.941Z,30.70
2018-06-08T14:28:18.268Z,30.60
2018-06-08T14:30:47.163Z,30.70
2018-06-08T14:33:16.031Z,30.90
2018-06-08T14:35:44.989Z,31.10
2018-06-08T14:38:14.032Z,30.90
2018-06-08T14:40:42.880Z,30.70
2018-06-08T14:45:40.613Z,30.30
2018-06-08T14:48:09.492Z,30.30
2018-06-08T14:50:40.540Z,30.30
2018-06-08T14:53:11.116Z,30.20
2018-06-08T14:55:40.203Z,30.00
2018-06-08T14:58:09.138Z,29.90
2018-06-08T15:08:33.064Z,29.20
2018-06-08T15:11:02.329Z,29.20
2018-06-08T15:13:31.265Z,29.10
2018-06-08T15:16:00.095Z,28.90
2018-06-08T15:18:29.046Z,28.80
2018-06-08T15:20:58.404Z,28.90
2018-06-08T15:23:27.281Z,28.80
2018-06-08T15:25:56.171Z,28.70
2018-06-08T15:30:53.897Z,28.30
2018-06-08T15:33:23.327Z,27.90
2018-06-08T15:35:52.219Z,27.80
2018-06-08T15:38:21.207Z,27.80
2018-06-08T15:40:50.106Z,28.00
2018-06-08T15:43:19.067Z,28.00
2018-06-08T15:45:47.959Z,28.00
2018-06-08T15:48:16.830Z,27.90
2018-06-08T15:53:14.431Z,27.50
2018-06-08T15:55:43.319Z,27.30
2018-06-08T16:00:41.067Z,27.20
2018-06-08T16:05:39.234Z,27.10
2018-06-08T16:08:08.185Z,27.10
2018-06-08T16:10:37.066Z,27.10
2018-06-08T16:13:05.963Z,27.00
2018-06-08T16:15:34.795Z,26.60
2018-06-08T16:18:04.754Z,26.50
2018-06-08T16:20:33.603Z,26.40
2018-06-08T16:23:02.428Z,26.40
2018-06-08T16:28:01.081Z,26.10
2018-06-08T16:33:05.595Z,25.70
2018-06-08T16:35:34.440Z,25.60
2018-06-08T16:40:33.099Z,25.50
2018-06-08T16:43:01.974Z,25.60
2018-06-08T16:45:30.854Z,25.50
2018-06-08T16:47:59.764Z,25.50
2018-06-08T16:50:28.655Z,25.60
2018-06-08T16:52:57.539Z,25.50
2018-06-08T16:55:26.437Z,25.50
2018-06-08T16:57:55.304Z,25.40
2018-06-08T17:00:24.204Z,25.30
2018-06-08T17:02:53.148Z,25.20
2018-06-08T17:05:22.156Z,25.20
2018-06-08T17:07:51.103Z,25.00
2018-06-08T17:10:19.965Z,24.80
2018-06-08T17:12:48.836Z,24.60
2018-06-08T17:17:46.560Z,24.40
2018-06-08T17:20:15.388Z,24.40
2018-06-08T17:22:44.360Z,24.30
2018-06-08T17:25:13.274Z,24.20
2018-06-08T17:27:42.290Z,24.30
2018-06-08T17:30:11.229Z,24.20
2018-06-08T17:32:40.084Z,24.20
2018-06-08T17:35:09.016Z,24.10
2018-06-08T17:37:38.043Z,24.10
2018-06-08T17:42:35.761Z,24.00
2018-06-08T17:45:05.119Z,24.00
2018-06-08T17:50:02.971Z,24.00
2018-06-08T17:52:31.823Z,24.00
2018-06-08T17:55:00.968Z,24.00
2018-06-08T17:57:30.019Z,24.00
2018-06-08T17:59:58.972Z,24.10
2018-06-08T18:04:56.620Z,24.20
2018-06-08T18:07:25.580Z,24.10
2018-06-08T18:09:54.495Z,24.00
2018-06-08T18:12:23.492Z,23.90
2018-06-08T18:14:52.419Z,23.90
2018-06-08T18:17:21.328Z,23.90
2018-06-08T18:19:51.818Z,23.70
2018-06-08T18:22:21.014Z,23.70
2018-06-08T18:24:50.216Z,23.60
2018-06-08T18:27:19.314Z,23.60
2018-06-08T18:29:48.193Z,23.50
2018-06-08T18:32:17.593Z,23.50
2018-06-08T18:34:46.519Z,23.50
2018-06-08T18:37:16.499Z,23.50
2018-06-08T18:39:45.932Z,23.40
2018-06-08T18:42:14.899Z,23.40
2018-06-08T18:44:43.844Z,23.40
2018-06-08T18:47:12.783Z,23.30
2018-06-08T18:49:41.652Z,23.20
2018-06-08T18:52:15.328Z,23.10
2018-06-08T18:54:45.414Z,23.00
2018-06-08T18:57:21.919Z,22.90
2018-06-08T18:59:51.449Z,22.80
2018-06-08T19:02:21.022Z,22.60
2018-06-08T19:04:49.893Z,22.10
2018-06-08T19:09:50.083Z,22.10
2018-06-08T19:12:19.356Z,22.20
2018-06-08T19:14:48.597Z,22.10
2018-06-08T19:17:18.045Z,22.10
2018-06-08T19:19:48.013Z,22.10
2018-06-08T19:22:16.939Z,22.10
2018-06-08T19:24:45.787Z,22.10
2018-06-08T19:27:14.688Z,22.10
2018-06-08T19:29:43.547Z,22.10
2018-06-08T19:32:12.374Z,22.00
2018-06-08T19:34:41.653Z,21.70
2018-06-08T19:37:12.622Z,21.70
2018-06-08T19:39:41.483Z,21.70
2018-06-08T19:42:10.442Z,21.60
2018-06-08T19:44:39.854Z,21.60
2018-06-08T19:47:08.937Z,21.60
2018-06-08T19:49:37.808Z,21.60
2018-06-08T19:52:06.863Z,21.60
2018-06-08T19:54:36.255Z,21.60
2018-06-08T19:57:05.834Z,21.60
2018-06-08T19:59:35.797Z,21.60
2018-06-08T20:02:05.684Z,21.70
2018-06-08T20:04:36.420Z,21.80
2018-06-08T20:07:05.513Z,21.80
2018-06-08T20:09:34.464Z,21.80
2018-06-08T20:14:33.797Z,21.90
2018-06-08T20:17:02.708Z,21.90
2018-06-08T20:19:31.972Z,21.90
2018-06-08T20:22:01.068Z,21.90
2018-06-08T20:24:29.951Z,21.80
2018-06-08T20:26:58.861Z,21.80
2018-06-08T20:29:27.780Z,21.80
2018-06-08T20:31:56.684Z,21.70
2018-06-08T20:34:25.536Z,21.70
2018-06-08T20:36:56.226Z,21.70
2018-06-08T20:39:25.064Z,21.60
2018-06-08T20:41:53.942Z,21.60
2018-06-08T20:46:54.733Z,21.60
2018-06-08T20:49:23.586Z,21.60
2018-06-08T20:51:52.440Z,21.50
2018-06-08T20:54:22.875Z,21.50
2018-06-08T20:57:10.572Z,21.50
2018-06-08T20:59:40.489Z,21.50
2018-06-08T21:02:09.502Z,21.50
2018-06-08T21:04:38.291Z,21.20
2018-06-08T21:07:10.945Z,21.10
2018-06-08T21:09:39.847Z,21.20
2018-06-08T21:12:08.732Z,21.20
2018-06-08T21:14:37.620Z,21.20
2018-06-08T21:17:10.137Z,21.30
2018-06-08T21:19:42.575Z,21.30
2018-06-08T21:22:12.888Z,21.40
2018-06-08T21:24:41.812Z,21.40
2018-06-08T21:27:10.766Z,21.40
2018-06-08T21:29:39.608Z,21.40
2018-06-08T21:32:08.623Z,21.40
2018-06-08T21:34:37.479Z,21.40
2018-06-08T21:37:06.418Z,21.30
2018-06-08T21:39:35.300Z,21.00
2018-06-08T21:42:04.150Z,20.50
2018-06-08T21:44:33.089Z,20.30
2018-06-08T21:47:02.082Z,20.20
2018-06-08T21:49:30.915Z,19.90
2018-06-08T21:51:59.779Z,19.80
2018-06-08T21:54:28.703Z,19.90
2018-06-08T21:56:57.656Z,19.80
2018-06-08T21:59:26.495Z,19.80
2018-06-08T22:01:55.330Z,19.80
2018-06-08T22:04:24.167Z,19.70
2018-06-08T22:06:53.187Z,19.50
2018-06-08T22:09:22.008Z,19.40
2018-06-08T22:11:50.892Z,19.60
2018-06-08T22:14:19.828Z,19.80
2018-06-08T22:16:48.691Z,19.90
2018-06-08T22:19:17.599Z,20.00
2018-06-08T22:21:46.461Z,20.10
2018-06-08T22:24:15.297Z,20.10
2018-06-08T22:26:44.231Z,20.20
2018-06-08T22:29:13.107Z,20.20
2018-06-08T22:31:41.936Z,20.20
2018-06-08T22:34:10.872Z,20.30
2018-06-08T22:36:39.742Z,20.30
2018-06-08T22:39:08.570Z,20.20
2018-06-08T22:41:37.423Z,20.20
2018-06-08T22:44:06.272Z,20.30
2018-06-08T22:46:35.179Z,20.20
2018-06-08T22:49:04.096Z,20.10
2018-06-08T22:51:33.172Z,20.10
2018-06-08T22:54:02.036Z,20.10
2018-06-08T22:56:31.423Z,20.10
2018-06-08T22:59:01.000Z,20.00
2018-06-08T23:01:29.911Z,20.00
2018-06-08T23:08:56.311Z,20.10
2018-06-08T23:11:25.186Z,20.00
2018-06-08T23:13:53.976Z,20.00
2018-06-08T23:16:22.877Z,20.10
2018-06-08T23:18:51.792Z,20.00
2018-06-08T23:21:20.690Z,20.00
2018-06-08T23:23:49.571Z,20.00
2018-06-08T23:26:18.435Z,20.00
2018-06-08T23:28:47.312Z,19.90
2018-06-08T23:31:16.163Z,20.00
2018-06-08T23:33:45.015Z,19.90
2018-06-08T23:36:13.825Z,19.80
2018-06-08T23:38:42.681Z,19.80
2018-06-08T23:41:11.510Z,19.70
2018-06-08T23:43:40.332Z,19.80
2018-06-08T23:46:09.191Z,19.70
2018-06-08T23:48:38.147Z,19.70
2018-06-08T23:51:06.979Z,19.60
2018-06-08T23:53:35.868Z,19.70
2018-06-08T23:56:04.731Z,19.60
2018-06-08T23:58:33.648Z,19.60
